Time;durP1;ratioP1;P1;durP2;ratioP2;P2;SDS_P1;SDS_P2;PMS_P1;PMS_P2;Temp;Humidity;BMP_temperature;BMP_pressure;BME280_temperature;BME280_humidity;BME280_pressure;Samples;Min_cycle;Max_cycle;Signal;HPM_P1;HPM_P2
2023/08/25 00:00:11;;;;;;;19.38;12.40;;;;;;;23.59;100.00;92728.97;5065155;28;20032;-79
2023/08/25 00:06:08;;;;;;;19.08;11.80;;;;;;;23.48;100.00;92714.72;5064383;28;20564;-80
2023/08/25 00:08:33;;;;;;;21.83;13.07;;;;;;;23.48;100.00;92718.16;5064202;28;20478;-80
2023/08/25 00:10:59;;;;;;;23.55;12.70;;;;;;;23.45;100.00;92710.88;5064198;28;20053;-80
2023/08/25 00:14:15;;;;;;;22.15;12.65;;;;;;;23.46;100.00;92711.63;5048314;28;20041;-80
2023/08/25 00:16:41;;;;;;;18.13;12.38;;;;;;;23.44;100.00;92703.19;5065049;28;20025;-79
2023/08/25 00:19:08;;;;;;;25.08;12.27;;;;;;;23.43;100.00;92709.69;5064822;28;20051;-79
2023/08/25 00:22:02;;;;;;;19.25;12.52;;;;;;;23.42;100.00;92700.16;5065288;28;20487;-80
2023/08/25 00:24:55;;;;;;;25.25;13.00;;;;;;;23.37;100.00;92700.44;5065260;28;20037;-79
2023/08/25 00:27:21;;;;;;;23.45;12.57;;;;;;;23.34;100.00;92699.25;5066254;28;20041;-79
2023/08/25 00:29:47;;;;;;;23.13;12.82;;;;;;;23.30;100.00;92692.34;5065562;28;20083;-79
2023/08/25 00:32:24;;;;;;;20.60;13.10;;;;;;;23.35;100.00;92700.81;5065015;28;20048;-80
2023/08/25 00:34:54;;;;;;;21.27;12.23;;;;;;;23.35;100.00;92706.16;5063926;28;20060;-80
2023/08/25 00:37:20;;;;;;;19.05;12.05;;;;;;;23.37;100.00;92703.91;5063801;28;20460;-80
2023/08/25 00:40:19;;;;;;;19.42;11.77;;;;;;;23.38;100.00;92700.09;5064121;28;20036;-80
2023/08/25 00:42:45;;;;;;;23.05;11.38;;;;;;;23.39;100.00;92700.84;5063671;28;20046;-80
2023/08/25 00:45:10;;;;;;;20.25;11.10;;;;;;;23.41;100.00;92699.34;5047697;28;20037;-79
2023/08/25 00:48:31;;;;;;;25.50;11.23;;;;;;;23.44;100.00;92704.00;5065794;28;20033;-80
2023/08/25 00:50:57;;;;;;;20.25;10.73;;;;;;;23.46;100.00;92707.06;5032042;28;20071;-79
2023/08/25 00:53:24;;;;;;;22.55;11.57;;;;;;;23.47;100.00;92703.25;5045052;28;20143;-80
2023/08/25 00:55:52;;;;;;;15.05;10.50;;;;;;;23.50;100.00;92707.09;5044354;28;20049;-80
2023/08/25 00:58:18;;;;;;;19.48;10.73;;;;;;;23.52;100.00;92709.44;5043839;28;20029;-80
2023/08/25 01:00:44;;;;;;;23.58;11.00;;;;;;;23.54;100.00;92707.16;5045242;28;20120;-80
2023/08/25 01:03:24;;;;;;;20.90;11.23;;;;;;;23.54;100.00;92707.16;5044088;28;20041;-79
2023/08/25 01:06:02;;;;;;;20.15;11.20;;;;;;;23.52;100.00;92704.84;5044582;28;20150;-80
2023/08/25 01:08:49;;;;;;;19.20;10.77;;;;;;;23.52;100.00;92709.44;5044624;28;20095;-79
2023/08/25 01:12:08;;;;;;;19.92;9.73;;;;;;;23.48;100.00;92715.50;5043689;28;20099;-79
2023/08/25 01:15:07;;;;;;;17.73;10.73;;;;;;;23.46;100.00;92709.75;5043167;28;20034;-79
2023/08/25 01:18:11;;;;;;;21.52;10.95;;;;;;;23.45;100.00;92702.84;5041226;28;20044;-80
2023/08/25 01:24:35;;;;;;;21.17;10.70;;;;;;;23.38;100.00;92700.09;5063713;28;20059;-80
2023/08/25 01:27:10;;;;;;;20.60;11.40;;;;;;;23.39;100.00;92696.28;5054444;28;20033;-80
2023/08/25 01:29:42;;;;;;;22.05;10.35;;;;;;;23.34;100.00;92696.59;5026782;28;20033;-79
2023/08/25 01:32:07;;;;;;;24.13;10.90;;;;;;;23.35;100.00;92700.81;5042513;28;20033;-80
2023/08/25 01:34:51;;;;;;;20.75;11.35;;;;;;;23.32;100.00;92701.53;5043366;28;20045;-79
2023/08/25 01:37:42;;;;;;;25.15;11.32;;;;;;;23.26;100.00;92697.63;5049357;28;20049;-80
2023/08/25 01:44:31;;;;;;;20.02;11.30;;;;;;;23.18;100.00;92683.41;5044324;28;20427;-79
2023/08/25 01:47:06;;;;;;;20.17;10.65;;;;;;;23.18;100.00;92679.97;5042306;28;20395;-80
2023/08/25 01:49:32;;;;;;;19.95;10.93;;;;;;;23.11;100.00;92669.94;5044236;28;20041;-80
2023/08/25 01:52:21;;;;;;;17.65;11.48;;;;;;;23.14;100.00;92679.13;5043308;28;20103;-79
2023/08/25 01:54:49;;;;;;;19.63;10.93;;;;;;;23.08;100.00;92665.34;5044315;28;20037;-79
2023/08/25 01:57:15;;;;;;;21.70;10.65;;;;;;;23.10;100.00;92676.41;5044947;28;20053;-79
2023/08/25 02:03:34;;;;;;;20.88;10.32;;;;;;;23.03;100.00;92665.63;5043593;28;20148;-80
2023/08/25 02:06:13;;;;;;;19.95;10.85;;;;;;;22.95;100.00;92661.31;5026663;28;20045;-79
2023/08/25 02:08:43;;;;;;;18.92;11.02;;;;;;;22.97;100.00;92667.81;5058939;28;20040;-80
2023/08/25 02:11:09;;;;;;;21.02;11.27;;;;;;;22.95;100.00;92663.97;5041877;28;20025;-80
2023/08/25 02:13:43;;;;;;;21.50;11.00;;;;;;;22.93;100.00;92661.66;5025806;28;20131;-80
2023/08/25 02:17:05;;;;;;;26.25;10.80;;;;;;;22.91;100.00;92666.56;5042642;28;20041;-80
2023/08/25 02:19:44;;;;;;;28.30;11.60;;;;;;;22.87;100.00;92663.09;5041716;28;20061;-79
2023/08/25 02:22:11;;;;;;;27.38;11.27;;;;;;;22.81;100.00;92656.53;5046768;28;20090;-79
2023/08/25 02:24:37;;;;;;;32.75;12.73;;;;;;;22.82;100.00;92655.38;5062437;28;20080;-79
2023/08/25 02:27:07;;;;;;;21.63;11.32;;;;;;;22.78;100.00;92667.91;5062295;28;20049;-79
2023/08/25 02:29:39;;;;;;;20.00;10.80;;;;;;;22.74;100.00;92662.53;5062979;28;20041;-79
2023/08/25 02:32:17;;;;;;;23.10;11.00;;;;;;;22.74;100.00;92664.41;5061922;28;20061;-80
2023/08/25 02:34:42;;;;;;;24.40;10.77;;;;;;;22.74;100.00;92661.72;5061367;28;20105;-79
2023/08/25 02:37:19;;;;;;;25.13;11.20;;;;;;;22.74;100.00;92664.41;5059093;28;20071;-80
2023/08/25 02:39:45;;;;;;;27.52;12.02;;;;;;;22.73;100.00;92660.97;5062397;28;20029;-80
2023/08/25 02:42:14;;;;;;;19.95;11.25;;;;;;;22.73;100.00;92654.88;5044960;28;20063;-79
2023/08/25 02:45:15;;;;;;;23.77;11.05;;;;;;;22.74;100.00;92665.19;5061286;28;20041;-80
2023/08/25 02:47:42;;;;;;;21.48;11.40;;;;;;;22.77;100.00;92661.03;5062276;28;20029;-79
2023/08/25 02:53:33;;;;;;;22.77;11.00;;;;;;;22.82;100.00;92653.47;5042171;28;20132;-78
2023/08/25 02:55:58;;;;;;;19.92;10.27;;;;;;;22.83;100.00;92649.69;5026114;28;20065;-80
2023/08/25 02:58:38;;;;;;;20.35;10.90;;;;;;;22.82;100.00;92642.03;5023633;28;20033;-80
2023/08/25 03:01:21;;;;;;;29.83;11.52;;;;;;;22.85;100.00;92641.31;5057672;28;20415;-80
2023/08/25 03:03:48;;;;;;;20.27;10.98;;;;;;;22.83;100.00;92644.38;5024864;28;20042;-79
2023/08/25 03:06:18;;;;;;;22.70;11.82;;;;;;;22.83;100.00;92632.91;5057596;28;20144;-79
2023/08/25 03:09:03;;;;;;;18.42;11.07;;;;;;;22.84;100.00;92634.44;5054257;28;20113;-78
2023/08/25 03:11:29;;;;;;;24.20;11.05;;;;;;;22.82;100.00;92629.47;5041899;28;20037;-79
2023/08/25 03:17:50;;;;;;;20.42;11.10;;;;;;;22.78;100.00;92623.31;5042601;28;20068;-80
2023/08/25 03:20:36;;;;;;;22.52;11.38;;;;;;;22.78;100.00;92631.31;5042235;28;20046;-80
2023/08/25 03:23:03;;;;;;;33.80;12.13;;;;;;;22.76;100.00;92627.47;5042056;28;20041;-80
2023/08/25 03:25:31;;;;;;;25.73;12.65;;;;;;;22.74;100.00;92629.72;5024469;28;20033;-79
2023/08/25 03:27:57;;;;;;;28.75;12.05;;;;;;;22.72;100.00;92626.63;5040610;28;20120;-80
2023/08/25 03:30:23;;;;;;;24.98;11.82;;;;;;;22.69;100.00;92622.78;5023984;28;20064;-80
2023/08/25 03:32:48;;;;;;;22.67;11.52;;;;;;;22.62;100.00;92623.44;5040750;28;20029;-79
2023/08/25 03:35:14;;;;;;;20.45;10.73;;;;;;;22.63;100.00;92619.66;5042878;28;20101;-80
2023/08/25 03:37:39;;;;;;;21.00;11.15;;;;;;;22.59;100.00;92618.84;5028197;28;20415;-80
2023/08/25 03:40:06;;;;;;;21.90;12.15;;;;;;;22.53;100.00;92614.91;5024809;28;20052;-80
2023/08/25 03:42:32;;;;;;;26.27;11.73;;;;;;;22.50;100.00;92618.31;5041510;28;20037;-79
2023/08/25 03:44:58;;;;;;;20.15;11.52;;;;;;;22.46;100.00;92609.47;5041105;28;20056;-79
2023/08/25 03:47:27;;;;;;;21.17;11.32;;;;;;;22.41;100.00;92610.56;5058415;28;20453;-79
2023/08/25 03:49:53;;;;;;;18.13;11.50;;;;;;;22.38;100.00;92605.16;5044342;28;20099;-79
2023/08/25 03:52:19;;;;;;;18.50;12.18;;;;;;;22.34;100.00;92596.34;5060681;28;20036;-80
2023/08/25 03:54:45;;;;;;;25.15;12.48;;;;;;;22.30;100.00;92592.84;5060386;28;20609;-80
2023/08/25 03:57:15;;;;;;;25.15;12.07;;;;;;;22.27;100.00;92596.22;5044750;28;20032;-80
2023/08/25 03:59:41;;;;;;;27.13;12.25;;;;;;;22.24;100.00;92595.78;5047879;28;20406;-79
2023/08/25 04:02:07;;;;;;;22.58;11.95;;;;;;;22.20;100.00;92586.97;5048185;28;20039;-79
2023/08/25 04:04:35;;;;;;;27.65;12.63;;;;;;;22.18;100.00;92591.88;5066256;28;20136;-80
2023/08/25 04:07:01;;;;;;;28.60;11.52;;;;;;;22.10;100.00;92581.44;5065890;28;20047;-79
2023/08/25 04:09:27;;;;;;;26.25;12.07;;;;;;;22.19;100.00;92589.97;5067661;28;20059;-80
2023/08/25 04:11:57;;;;;;;21.98;12.05;;;;;;;22.18;100.00;92583.09;5067212;28;20065;-80
2023/08/25 04:14:52;;;;;;;24.38;11.90;;;;;;;22.17;100.00;92581.56;5065998;28;20044;-79
2023/08/25 04:17:19;;;;;;;21.77;12.25;;;;;;;22.17;100.00;92586.88;5063645;28;20029;-80
2023/08/25 04:19:44;;;;;;;25.90;12.13;;;;;;;22.14;100.00;92591.03;5064416;28;20054;-80
2023/08/25 04:22:37;;;;;;;20.00;12.50;;;;;;;22.09;100.00;92590.53;5064336;28;20044;-80
2023/08/25 04:25:27;;;;;;;25.27;12.20;;;;;;;22.06;100.00;92597.38;5063717;28;20677;-80
2023/08/25 04:27:58;;;;;;;21.70;11.50;;;;;;;21.98;100.00;92582.38;5064358;28;20120;-80
2023/08/25 04:30:42;;;;;;;25.23;12.98;;;;;;;22.00;100.00;92596.13;5047819;28;20048;-80
2023/08/25 04:33:21;;;;;;;21.48;12.48;;;;;;;21.97;100.00;92594.16;5064377;28;20445;-79
2023/08/25 04:36:04;;;;;;;26.90;12.82;;;;;;;21.96;100.00;92588.06;5064927;28;20033;-80
2023/08/25 04:38:30;;;;;;;21.77;12.93;;;;;;;21.95;100.00;92601.72;5064296;28;20041;-80
2023/08/25 04:41:03;;;;;;;20.08;12.98;;;;;;;22.00;100.00;92606.78;5064334;28;20041;-80
2023/08/25 04:44:06;;;;;;;21.48;13.30;;;;;;;21.96;100.00;92609.38;5064486;28;20063;-79
2023/08/25 04:46:32;;;;;;;24.40;12.80;;;;;;;21.92;100.00;92597.13;5050371;28;20040;-78
2023/08/25 04:48:59;;;;;;;19.52;12.98;;;;;;;21.93;100.00;92603.97;5037316;28;20032;-78
2023/08/25 04:51:25;;;;;;;22.80;12.57;;;;;;;21.92;100.00;92600.56;5046635;28;20033;-78
2023/08/25 04:53:50;;;;;;;21.63;12.85;;;;;;;21.94;100.00;92600.22;5042316;28;20488;-78
2023/08/25 04:56:17;;;;;;;23.10;12.43;;;;;;;21.98;100.00;92598.38;5039017;28;20401;-78
2023/08/25 04:58:44;;;;;;;23.45;12.45;;;;;;;21.97;100.00;92599.50;5050503;28;20041;-79
2023/08/25 05:01:09;;;;;;;20.38;13.07;;;;;;;21.99;100.00;92597.25;5050862;28;20044;-79
2023/08/25 05:03:35;;;;;;;25.85;13.02;;;;;;;21.99;100.00;92599.91;5055057;28;20033;-79
2023/08/25 05:06:01;;;;;;;23.35;12.27;;;;;;;22.01;100.00;92601.09;5059442;28;20043;-79
2023/08/25 05:08:29;;;;;;;25.48;12.18;;;;;;;22.03;100.00;92598.84;5060429;28;20033;-78
2023/08/25 05:10:55;;;;;;;24.92;12.23;;;;;;;22.06;100.00;92597.38;5045774;28;20114;-79
2023/08/25 05:13:21;;;;;;;26.80;13.02;;;;;;;22.08;100.00;92595.13;5052038;28;20458;-78
2023/08/25 05:15:50;;;;;;;28.33;13.20;;;;;;;22.11;100.00;92599.75;5040105;28;20044;-78
2023/08/25 05:18:25;;;;;;;33.00;12.73;;;;;;;22.12;100.00;92595.19;5040294;28;20057;-78
2023/08/25 05:20:58;;;;;;;25.33;13.70;;;;;;;22.16;100.00;92596.03;5062644;28;20045;-79
2023/08/25 05:23:25;;;;;;;30.38;17.13;;;;;;;22.19;100.00;92590.72;5045148;28;20090;-79
2023/08/25 05:25:56;;;;;;;26.02;15.55;;;;;;;22.22;100.00;92590.06;5057814;28;20499;-79
2023/08/25 05:28:30;;;;;;;30.80;14.40;;;;;;;22.32;100.00;92594.03;5057470;28;20041;-79
2023/08/25 05:31:14;;;;;;;22.00;13.45;;;;;;;22.38;100.00;92592.59;5057273;28;20033;-79
2023/08/25 05:34:18;;;;;;;26.10;12.57;;;;;;;22.50;100.00;92598.88;4996890;28;20089;-78
2023/08/25 05:36:56;;;;;;;26.77;13.45;;;;;;;22.61;100.00;92599.81;4982950;28;20559;-79
2023/08/25 05:39:28;;;;;;;22.65;12.95;;;;;;;22.71;100.00;92609.09;5046138;28;20045;-79
2023/08/25 05:41:53;;;;;;;22.50;12.82;;;;;;;22.81;100.00;92609.25;5058632;28;20075;-79
2023/08/25 05:44:19;;;;;;;31.33;12.88;;;;;;;22.93;100.00;92610.94;5057686;28;20139;-78
2023/08/25 05:46:45;;;;;;;23.30;12.75;;;;;;;23.03;100.00;92615.69;5037698;28;20037;-78
2023/08/25 05:49:13;;;;;;;23.15;12.45;;;;;;;23.17;100.00;92617.00;5036926;28;20045;-78
2023/08/25 05:51:39;;;;;;;29.40;12.60;;;;;;;23.29;100.00;92622.13;5020604;28;20055;-78
2023/08/25 05:54:10;;;;;;;27.05;12.13;;;;;;;23.40;100.00;92625.72;5020407;28;20036;-78
2023/08/25 05:56:36;;;;;;;18.70;11.57;;;;;;;23.53;100.00;92631.59;5020653;28;20091;-78
2023/08/25 05:59:03;;;;;;;29.63;12.23;;;;;;;23.66;100.00;92632.91;5040127;28;20064;-79
2023/08/25 06:01:29;;;;;;;22.67;12.27;;;;;;;23.81;100.00;92639.19;5056090;28;20029;-78
2023/08/25 06:03:55;;;;;;;21.55;12.45;;;;;;;23.96;100.00;92631.31;5055396;28;20509;-79
2023/08/25 06:06:21;;;;;;;30.52;12.95;;;;;;;24.09;100.00;92651.31;5055976;28;20040;-79
2023/08/25 06:08:47;;;;;;;21.98;12.63;;;;;;;24.24;100.00;92653.00;5055557;28;20051;-79
2023/08/25 06:11:14;;;;;;;26.85;11.52;;;;;;;24.41;100.00;92656.19;5054537;28;20021;-78
2023/08/25 06:13:39;;;;;;;19.85;11.52;;;;;;;24.58;100.00;92655.63;5056035;28;20542;-79
2023/08/25 06:16:05;;;;;;;23.55;13.48;;;;;;;24.76;100.00;92655.00;5056539;28;20060;-78
2023/08/25 06:18:31;;;;;;;22.83;12.10;;;;;;;24.91;100.00;92652.06;5056454;28;20479;-79
2023/08/25 06:20:57;;;;;;;22.25;12.13;;;;;;;25.11;100.00;92649.91;5056200;28;20044;-78
2023/08/25 06:23:23;;;;;;;23.45;11.02;;;;;;;25.66;100.00;92651.00;5054604;28;20040;-78
2023/08/25 06:25:49;;;;;;;23.80;12.32;;;;;;;26.37;95.92;92659.28;5055723;28;20548;-78
2023/08/25 06:28:15;;;;;;;21.38;11.63;;;;;;;27.07;91.76;92655.50;5055672;28;20029;-79
2023/08/25 06:30:41;;;;;;;20.80;11.48;;;;;;;27.68;86.86;92663.47;5054040;28;20490;-80
2023/08/25 06:33:09;;;;;;;21.67;11.93;;;;;;;28.28;85.76;92654.38;5056186;28;20445;-80
2023/08/25 06:35:37;;;;;;;22.35;11.57;;;;;;;28.83;82.30;92661.72;5038136;28;20040;-80
2023/08/25 06:38:04;;;;;;;19.33;11.73;;;;;;;29.36;78.21;92661.66;5046090;28;20056;-80
2023/08/25 06:40:40;;;;;;;27.23;11.63;;;;;;;29.90;76.46;92667.28;5036750;28;20048;-81
2023/08/25 06:43:09;;;;;;;22.00;11.50;;;;;;;30.44;72.29;92659.31;5052167;28;20037;-80
2023/08/25 06:45:37;;;;;;;14.93;11.05;;;;;;;30.95;70.41;92655.88;5039620;28;20124;-80
2023/08/25 06:48:16;;;;;;;18.73;10.73;;;;;;;31.30;63.98;92652.56;5056444;28;20118;-80
2023/08/25 06:50:41;;;;;;;21.58;10.68;;;;;;;31.18;63.81;92655.09;5055442;28;20035;-81
2023/08/25 06:53:08;;;;;;;18.75;10.10;;;;;;;31.08;65.78;92648.72;5038887;28;20064;-80
2023/08/25 06:55:34;;;;;;;19.45;10.38;;;;;;;30.89;64.06;92642.84;5055232;28;20033;-80
2023/08/25 06:58:02;;;;;;;22.30;10.82;;;;;;;30.71;63.56;92653.09;5038996;28;20047;-80
2023/08/25 07:00:29;;;;;;;21.23;10.80;;;;;;;30.17;65.62;92651.13;5056334;28;20032;-80
2023/08/25 07:02:55;;;;;;;20.33;10.77;;;;;;;30.25;72.23;92655.28;5045492;28;20076;-81
2023/08/25 07:05:20;;;;;;;15.30;10.30;;;;;;;30.43;68.01;92652.34;5033960;28;20037;-79
2023/08/25 07:07:48;;;;;;;18.65;10.10;;;;;;;30.80;67.77;92644.47;5035010;28;20542;-80
2023/08/25 07:10:15;;;;;;;16.92;10.27;;;;;;;30.65;67.15;92635.84;5035592;28;20526;-81
2023/08/25 07:12:42;;;;;;;18.33;10.40;;;;;;;30.30;70.10;92637.88;5034615;28;20037;-81
2023/08/25 07:15:09;;;;;;;23.83;10.25;;;;;;;29.63;74.92;92632.91;5035246;28;20033;-79
2023/08/25 07:17:35;;;;;;;19.05;11.45;;;;;;;28.98;76.46;92637.34;5035179;28;20060;-80
2023/08/25 07:20:00;;;;;;;23.88;11.18;;;;;;;28.51;81.60;92632.34;5034429;28;20514;-78
2023/08/25 07:22:26;;;;;;;29.38;11.68;;;;;;;28.36;82.62;92620.88;5035664;28;20037;-80
2023/08/25 07:24:54;;;;;;;23.70;11.00;;;;;;;28.21;82.49;92614.03;5034817;28;20383;-80
2023/08/25 07:27:20;;;;;;;21.88;10.85;;;;;;;28.00;84.53;92614.94;5035370;28;20048;-80
2023/08/25 07:29:46;;;;;;;25.70;11.00;;;;;;;27.65;87.50;92607.75;5043311;28;20033;-79
2023/08/25 07:32:11;;;;;;;23.75;10.77;;;;;;;27.75;85.57;92604.28;5043091;28;20036;-78
2023/08/25 07:34:37;;;;;;;27.45;11.32;;;;;;;27.88;87.74;92610.78;5056232;28;20025;-79
2023/08/25 07:37:03;;;;;;;23.63;11.02;;;;;;;28.14;84.77;92600.63;5056350;28;20033;-79
2023/08/25 07:39:29;;;;;;;20.38;10.23;;;;;;;27.99;83.47;92603.41;5049669;28;20049;-80
2023/08/25 07:41:55;;;;;;;22.38;10.60;;;;;;;28.27;82.16;92599.00;5040157;28;20044;-80
2023/08/25 07:44:21;;;;;;;19.20;11.18;;;;;;;28.37;80.42;92598.19;5056338;28;20060;-80
2023/08/25 07:46:46;;;;;;;26.20;10.23;;;;;;;28.52;79.50;92600.78;5038466;28;20037;-80
2023/08/25 07:49:12;;;;;;;17.52;10.90;;;;;;;28.80;75.95;92600.56;5037825;28;20037;-80
2023/08/25 07:51:38;;;;;;;23.48;10.63;;;;;;;29.08;73.44;92596.09;5020651;28;20037;-80
2023/08/25 07:54:07;;;;;;;25.73;11.70;;;;;;;29.19;66.96;92601.41;5036998;28;20068;-80
2023/08/25 07:56:33;;;;;;;21.95;11.38;;;;;;;29.10;75.63;92596.47;5037673;28;20060;-80
2023/08/25 07:58:59;;;;;;;23.55;11.70;;;;;;;29.12;70.08;92602.22;5036878;28;20439;-80
2023/08/25 08:01:25;;;;;;;21.95;10.98;;;;;;;29.15;74.29;92604.13;5039412;28;20080;-80
2023/08/25 08:03:50;;;;;;;26.80;11.48;;;;;;;29.36;74.34;92599.66;5037140;28;20407;-80
2023/08/25 08:06:17;;;;;;;27.70;11.82;;;;;;;29.36;70.31;92602.34;5038028;28;20467;-80
2023/08/25 08:08:43;;;;;;;29.35;11.48;;;;;;;29.47;68.61;92603.00;5037385;28;20103;-80
2023/08/25 08:11:09;;;;;;;28.13;11.68;;;;;;;29.23;69.99;92605.59;5019896;28;20082;-80
2023/08/25 08:13:35;;;;;;;24.65;11.20;;;;;;;29.15;68.53;92604.13;5020301;28;20034;-80
2023/08/25 08:16:02;;;;;;;22.20;12.15;;;;;;;29.20;67.30;92611.75;5038040;28;20049;-79
2023/08/25 08:18:27;;;;;;;18.05;10.68;;;;;;;29.22;69.77;92605.97;5037503;28;20045;-80
2023/08/25 08:20:55;;;;;;;23.27;11.35;;;;;;;29.41;68.24;92612.72;5037424;28;20503;-80
2023/08/25 08:23:20;;;;;;;30.88;12.52;;;;;;;29.57;65.86;92612.91;5038137;28;20041;-80
2023/08/25 08:25:46;;;;;;;26.20;12.48;;;;;;;29.55;65.32;92615.25;5037751;28;20037;-80
2023/08/25 08:28:12;;;;;;;23.63;12.00;;;;;;;29.50;64.84;92623.78;5037203;28;20439;-80
2023/08/25 08:30:37;;;;;;;24.60;12.80;;;;;;;29.56;63.86;92626.81;5036246;28;20036;-79
2023/08/25 08:33:05;;;;;;;21.80;11.57;;;;;;;29.58;65.72;92625.22;5038323;28;20045;-79
2023/08/25 08:35:31;;;;;;;24.85;12.45;;;;;;;29.55;64.46;92626.03;5037527;28;20045;-79
2023/08/25 08:37:57;;;;;;;22.73;13.20;;;;;;;29.52;63.84;92624.16;5037155;28;20072;-79
2023/08/25 08:40:22;;;;;;;21.88;11.73;;;;;;;29.57;63.75;92631.78;5035823;28;20049;-79
2023/08/25 08:42:51;;;;;;;18.77;11.82;;;;;;;29.52;65.82;92621.47;5037361;28;20068;-79
2023/08/25 08:45:24;;;;;;;26.50;11.80;;;;;;;29.35;66.97;92622.41;5037295;28;20029;-79
2023/08/25 08:47:50;;;;;;;;;;;;;;;29.34;70.17;92626.25;5038298;28;20411;-79
2023/08/25 08:50:16;;;;;;;24.98;10.70;;;;;;;29.39;71.16;92617.75;5035100;28;20075;-79
2023/08/25 08:52:47;;;;;;;29.00;11.75;;;;;;;29.31;71.62;92616.28;5036252;28;20036;-79
2023/08/25 08:55:16;;;;;;;23.50;11.88;;;;;;;29.07;70.53;92616.13;5037076;28;20043;-79
2023/08/25 08:57:43;;;;;;;23.13;12.43;;;;;;;29.21;69.05;92612.53;5036713;28;20069;-82
2023/08/25 09:00:12;;;;;;;23.00;11.68;;;;;;;29.25;70.73;92622.13;5036889;28;20037;-80
2023/08/25 09:02:43;;;;;;;19.92;11.85;;;;;;;29.12;67.14;92615.69;5036864;28;20044;-79
2023/08/25 09:05:11;;;;;;;22.40;12.07;;;;;;;29.08;69.86;92620.34;5036607;28;20041;-78
2023/08/25 09:07:38;;;;;;;18.55;12.82;;;;;;;29.17;69.36;92612.56;5035532;28;20039;-79
2023/08/25 09:10:04;;;;;;;21.20;11.30;;;;;;;29.35;70.55;92609.69;5035758;28;20068;-79
2023/08/25 09:12:30;;;;;;;21.35;12.60;;;;;;;29.33;68.45;92613.97;5034806;28;20095;-78
2023/08/25 09:14:56;;;;;;;24.52;13.20;;;;;;;28.92;67.46;92614.72;5041239;28;20670;-79
2023/08/25 09:17:21;;;;;;;27.48;12.10;;;;;;;29.01;70.85;92606.94;5049793;28;20026;-79
2023/08/25 09:19:48;;;;;;;25.27;12.27;;;;;;;29.23;68.58;92600.19;5045789;28;20041;-80
2023/08/25 09:22:16;;;;;;;26.65;12.95;;;;;;;29.34;68.19;92610.88;5043454;28;20045;-78
2023/08/25 09:24:45;;;;;;;23.17;12.15;;;;;;;29.32;67.52;92618.59;5037669;28;20082;-78
2023/08/25 09:27:25;;;;;;;20.98;12.50;;;;;;;29.31;68.79;92617.03;5041162;28;20033;-78
2023/08/25 09:29:59;;;;;;;28.05;12.98;;;;;;;29.56;67.65;92605.97;5054435;28;20029;-80
2023/08/25 09:32:25;;;;;;;20.83;13.02;;;;;;;29.56;70.06;92608.69;5038037;28;20044;-78
2023/08/25 09:34:50;;;;;;;22.92;12.43;;;;;;;29.59;69.59;92610.59;5047948;28;20076;-78
2023/08/25 09:37:16;;;;;;;28.33;13.93;;;;;;;29.57;69.61;92602.13;5042377;28;20025;-79
2023/08/25 09:39:45;;;;;;;25.70;13.85;;;;;;;29.64;70.78;92606.69;5051531;28;20053;-79
2023/08/25 09:42:11;;;;;;;22.40;12.30;;;;;;;29.62;72.43;92601.69;5051763;28;20361;-79
2023/08/25 09:44:38;;;;;;;27.20;12.40;;;;;;;29.61;70.40;92592.06;5044020;28;20037;-81
2023/08/25 09:47:09;;;;;;;24.70;12.73;;;;;;;29.51;69.55;92592.94;5036922;28;20037;-81
2023/08/25 09:49:39;;;;;;;21.60;11.50;;;;;;;29.52;71.41;92594.50;5042401;28;20045;-80
2023/08/25 09:52:09;;;;;;;26.98;13.75;;;;;;;29.63;70.55;92605.91;5039846;28;20034;-80
2023/08/25 09:54:35;;;;;;;22.35;12.52;;;;;;;29.54;73.53;92596.78;5038473;28;20034;-81
2023/08/25 09:57:01;;;;;;;22.67;11.90;;;;;;;29.71;71.72;92597.78;5042111;28;20439;-80
2023/08/25 09:59:27;;;;;;;21.40;11.95;;;;;;;29.65;72.40;92597.41;5045759;28;20037;-80
2023/08/25 10:01:53;;;;;;;26.75;12.85;;;;;;;29.91;73.84;92590.56;5044451;28;20040;-79
2023/08/25 10:04:21;;;;;;;22.27;12.05;;;;;;;29.94;71.13;92597.84;5043472;28;20372;-79
2023/08/25 10:06:47;;;;;;;23.52;12.00;;;;;;;29.90;69.16;92594.44;5048597;28;20055;-81
2023/08/25 10:09:12;;;;;;;17.83;11.38;;;;;;;29.77;70.62;92594.22;5050082;28;20033;-79
2023/08/25 10:11:42;;;;;;;21.92;11.98;;;;;;;29.57;68.58;92585.94;5035670;28;20041;-79
2023/08/25 10:14:10;;;;;;;25.35;12.52;;;;;;;29.77;68.44;92598.84;5049872;28;20040;-79
2023/08/25 10:16:55;;;;;;;22.05;12.05;;;;;;;29.79;68.11;92591.88;5033356;28;20127;-80
2023/08/25 10:19:25;;;;;;;25.90;12.05;;;;;;;29.66;67.87;92599.72;5046805;28;20380;-80
2023/08/25 10:21:52;;;;;;;25.38;12.55;;;;;;;29.48;68.81;92594.53;5046393;28;20039;-79
2023/08/25 10:24:22;;;;;;;22.08;11.32;;;;;;;29.86;68.52;92597.19;5044257;28;20706;-79
2023/08/25 10:26:52;;;;;;;20.52;13.13;;;;;;;29.81;66.59;92599.56;5032260;28;20033;-78
2023/08/25 10:29:21;;;;;;;27.20;13.15;;;;;;;29.92;67.44;92602.88;5041774;28;20087;-79
2023/08/25 10:31:49;;;;;;;19.55;10.65;;;;;;;30.00;68.23;92590.84;5047779;28;20036;-80
2023/08/25 10:34:35;;;;;;;18.50;11.13;;;;;;;29.78;67.29;92587.66;5043667;28;20048;-80
2023/08/25 10:37:08;;;;;;;22.00;12.15;;;;;;;29.62;69.41;92590.88;5058021;28;20093;-79
2023/08/25 10:39:57;;;;;;;21.25;11.55;;;;;;;29.54;68.85;92586.75;5041227;28;20122;-79
2023/08/25 10:42:25;;;;;;;21.00;13.73;;;;;;;29.63;68.54;92588.94;5046084;28;20072;-80
2023/08/25 10:45:01;;;;;;;22.17;12.05;;;;;;;29.68;68.51;92583.91;5041881;28;20356;-81
2023/08/25 10:47:29;;;;;;;22.88;13.40;;;;;;;29.46;68.59;92585.31;5057139;28;20037;-80
2023/08/25 10:49:55;;;;;;;20.27;11.48;;;;;;;29.72;68.65;92580.41;5043858;28;20495;-80
2023/08/25 10:52:22;;;;;;;22.38;12.45;;;;;;;29.91;66.06;92587.13;5047468;28;20087;-80
2023/08/25 10:54:52;;;;;;;20.05;12.75;;;;;;;30.01;65.69;92578.09;5045767;28;20033;-80
2023/08/25 10:57:27;;;;;;;22.30;12.20;;;;;;;30.11;66.23;92579.16;5052081;28;20033;-80
2023/08/25 10:59:57;;;;;;;22.00;12.68;;;;;;;30.03;64.74;92584.63;5060511;28;20028;-80
2023/08/25 11:02:36;;;;;;;21.33;12.55;;;;;;;30.04;64.59;92580.75;5057651;28;20041;-80
2023/08/25 11:05:31;;;;;;;23.90;12.75;;;;;;;30.38;63.47;92581.88;5064819;28;20033;-80
2023/08/25 11:08:02;;;;;;;21.20;11.95;;;;;;;30.29;61.51;92576.97;5053329;28;20040;-80
2023/08/25 11:10:35;;;;;;;18.73;10.50;;;;;;;30.34;62.87;92579.19;5059593;28;20040;-80
2023/08/25 11:13:08;;;;;;;19.08;12.70;;;;;;;30.18;62.30;92569.00;5046669;28;20033;-80
2023/08/25 11:15:38;;;;;;;18.23;12.00;;;;;;;30.13;59.33;92571.38;5061861;28;20048;-80
2023/08/25 11:18:04;;;;;;;20.30;11.50;;;;;;;30.32;61.77;92554.53;5027606;28;20057;-79
2023/08/25 11:20:30;;;;;;;16.35;10.55;;;;;;;30.35;60.26;92555.66;5053712;28;20021;-79
2023/08/25 11:22:57;;;;;;;27.05;13.32;;;;;;;30.04;59.86;92561.13;5063485;28;20471;-80
2023/08/25 11:25:24;;;;;;;17.48;10.93;;;;;;;30.23;60.30;92554.28;5044431;28;20045;-80
2023/08/25 11:27:51;;;;;;;12.82;7.82;;;;;;;30.26;58.77;92559.63;5045162;28;20091;-80
2023/08/25 11:30:17;;;;;;;16.25;11.45;;;;;;;30.05;59.61;92565.31;5046355;28;20041;-80
2023/08/25 11:32:49;;;;;;;19.35;11.13;;;;;;;30.03;58.99;92560.31;5064902;28;20072;-80
2023/08/25 11:35:15;;;;;;;22.13;10.52;;;;;;;30.25;58.09;92560.03;5058407;28;20036;-80
2023/08/25 11:37:42;;;;;;;20.65;10.52;;;;;;;30.44;57.94;92553.19;5063983;28;20021;-80
2023/08/25 11:40:14;;;;;;;22.52;11.52;;;;;;;30.46;56.77;92557.00;5063923;28;20021;-80
2023/08/25 11:42:40;;;;;;;26.90;10.85;;;;;;;30.53;55.06;92560.78;5062513;28;20059;-80
2023/08/25 11:45:10;;;;;;;21.45;11.05;;;;;;;30.63;55.96;92551.75;5055563;28;20096;-80
2023/08/25 11:47:37;;;;;;;19.80;10.98;;;;;;;30.67;55.05;92549.78;5062113;28;20040;-80
2023/08/25 11:50:04;;;;;;;18.83;9.20;;;;;;;30.56;54.90;92551.88;5045352;28;20530;-80
2023/08/25 11:52:34;;;;;;;15.90;10.25;;;;;;;30.56;55.64;92546.47;5056822;28;20044;-80